Time;durP1;ratioP1;P1;durP2;ratioP2;P2;SDS_P1;SDS_P2;PMS_P1;PMS_P2;Temp;Humidity;BMP_temperature;BMP_pressure;BME280_temperature;BME280_humidity;BME280_pressure;Samples;Min_cycle;Max_cycle;Signal;HPM_P1;HPM_P2
2023/09/27 00:01:51;;;;;;;10.07;8.20;;;22.30;99.90;;;;;;6226025;28;89435;-67
2023/09/27 00:04:55;;;;;;;8.93;8.02;;;22.30;99.90;;;;;;6215696;28;89120;-67
2023/09/27 00:07:57;;;;;;;9.10;7.93;;;22.30;99.90;;;;;;6230814;28;87935;-67
2023/09/27 00:10:59;;;;;;;9.05;8.25;;;22.20;99.90;;;;;;6230613;28;88931;-67
2023/09/27 00:14:01;;;;;;;11.13;9.18;;;22.30;99.90;;;;;;6210923;28;88363;-67
2023/09/27 00:17:03;;;;;;;10.68;8.00;;;22.20;99.90;;;;;;6219345;28;89095;-67
2023/09/27 00:20:11;;;;;;;10.65;8.88;;;22.30;99.90;;;;;;6226911;28;87753;-67
2023/09/27 00:26:44;;;;;;;8.98;8.18;;;22.20;99.90;;;;;;6226207;28;87762;-67
2023/09/27 00:29:48;;;;;;;8.77;7.90;;;22.20;99.90;;;;;;6229062;28;88038;-67
2023/09/27 00:32:50;;;;;;;9.70;8.70;;;22.20;99.90;;;;;;6233760;28;89119;-67
2023/09/27 00:35:53;;;;;;;9.15;8.18;;;22.20;99.90;;;;;;6233543;28;89082;-68
2023/09/27 00:38:55;;;;;;;8.90;8.00;;;22.20;99.90;;;;;;6235171;28;87966;-67
2023/09/27 00:41:57;;;;;;;8.93;8.02;;;22.20;99.90;;;;;;6232480;28;89117;-68
2023/09/27 00:45:35;;;;;;;8.90;8.00;;;22.20;99.90;;;;;;6228317;28;88320;-67
2023/09/27 00:48:37;;;;;;;9.27;7.97;;;22.20;99.90;;;;;;6222613;28;88118;-68
2023/09/27 00:51:42;;;;;;;8.93;8.02;;;22.20;99.90;;;;;;6226264;28;89089;-68
2023/09/27 00:54:43;;;;;;;9.98;8.05;;;22.20;99.90;;;;;;6224985;28;90039;-67
2023/09/27 00:57:46;;;;;;;8.93;7.75;;;22.20;99.90;;;;;;6234362;28;89430;-67
2023/09/27 01:00:50;;;;;;;8.10;7.30;;;22.20;99.90;;;;;;6237013;27;89349;-67
2023/09/27 01:03:53;;;;;;;8.10;7.28;;;22.20;99.90;;;;;;6226867;28;89244;-67
2023/09/27 01:10:53;;;;;;;8.48;7.68;;;22.20;99.90;;;;;;6226619;28;88617;-67
2023/09/27 01:13:55;;;;;;;8.35;7.55;;;22.20;99.90;;;;;;6229773;28;89132;-67
2023/09/27 01:17:07;;;;;;;10.07;8.10;;;22.20;99.90;;;;;;6228841;28;88330;-67
2023/09/27 01:20:12;;;;;;;8.30;7.50;;;22.20;99.90;;;;;;6222450;28;87163;-68
2023/09/27 01:23:15;;;;;;;8.82;7.50;;;22.20;99.90;;;;;;6227885;28;89151;-67
2023/09/27 01:26:19;;;;;;;9.02;7.75;;;22.20;99.90;;;;;;6232555;28;88951;-68
2023/09/27 01:29:21;;;;;;;9.35;7.40;;;22.20;99.90;;;;;;6221917;28;88849;-69
2023/09/27 01:32:23;;;;;;;197.48;68.03;;;22.20;99.90;;;;;;6229594;28;88434;-70
2023/09/27 01:35:25;;;;;;;243.75;105.70;;;22.30;99.90;;;;;;6231427;28;88979;-69
2023/09/27 01:38:28;;;;;;;125.27;69.27;;;22.30;99.90;;;;;;6247571;28;90010;-68
2023/09/27 01:41:30;;;;;;;53.55;28.55;;;22.30;99.90;;;;;;6234104;27;89057;-69
2023/09/27 01:44:32;;;;;;;49.25;23.25;;;22.30;99.90;;;;;;6226332;28;89121;-68
2023/09/27 01:47:34;;;;;;;35.47;18.92;;;22.30;99.90;;;;;;6223713;28;86302;-68
2023/09/27 01:50:37;;;;;;;31.52;17.35;;;22.30;99.90;;;;;;6226220;28;89106;-69
2023/09/27 01:53:41;;;;;;;29.13;15.35;;;22.40;99.90;;;;;;6225366;28;88035;-69
2023/09/27 01:56:43;;;;;;;27.80;14.90;;;22.40;99.90;;;;;;6227305;28;90375;-70
2023/09/27 01:59:45;;;;;;;22.23;12.73;;;22.40;99.90;;;;;;6227325;28;89094;-69
2023/09/27 02:02:50;;;;;;;22.38;12.98;;;22.30;99.90;;;;;;6219760;28;89250;-69
2023/09/27 02:05:52;;;;;;;19.92;11.38;;;22.40;99.90;;;;;;6219053;28;89140;-68
2023/09/27 02:08:56;;;;;;;16.83;10.85;;;22.40;99.90;;;;;;6222143;28;89277;-70
2023/09/27 02:11:58;;;;;;;15.70;10.63;;;22.40;99.90;;;;;;6227652;28;89172;-70
2023/09/27 02:15:00;;;;;;;16.83;10.38;;;22.40;99.90;;;;;;6224789;28;88913;-69
2023/09/27 02:18:02;;;;;;;14.73;9.50;;;22.40;99.90;;;;;;6226513;28;88253;-69
2023/09/27 02:21:04;;;;;;;16.95;10.05;;;22.40;99.90;;;;;;6216621;28;89076;-68
2023/09/27 02:24:09;;;;;;;15.07;9.65;;;22.40;99.90;;;;;;6225694;28;89084;-69
2023/09/27 02:27:11;;;;;;;13.77;9.43;;;22.40;99.90;;;;;;6218315;28;89913;-70
2023/09/27 02:30:14;;;;;;;11.07;8.75;;;22.40;99.90;;;;;;6228118;28;88976;-68
2023/09/27 02:33:16;;;;;;;12.73;8.65;;;22.40;99.90;;;;;;6232690;27;89176;-69
2023/09/27 02:36:18;;;;;;;10.73;7.88;;;22.50;99.90;;;;;;6228189;27;88951;-70
2023/09/27 02:39:21;;;;;;;14.00;8.82;;;22.40;99.90;;;;;;6213478;28;90244;-69
2023/09/27 02:42:23;;;;;;;14.00;8.57;;;22.40;99.90;;;;;;6227041;28;88979;-69
2023/09/27 02:45:25;;;;;;;12.05;8.38;;;22.50;99.90;;;;;;6216275;28;89072;-69
2023/09/27 02:48:28;;;;;;;10.35;7.45;;;22.50;99.90;;;;;;6229191;28;87413;-69
2023/09/27 02:51:31;;;;;;;9.38;7.63;;;22.50;99.90;;;;;;6228781;28;88960;-69
2023/09/27 02:54:35;;;;;;;11.32;8.25;;;22.40;99.90;;;;;;6224646;28;89237;-69
2023/09/27 02:57:37;;;;;;;10.73;8.00;;;22.40;99.90;;;;;;6225084;28;90281;-69
2023/09/27 03:00:40;;;;;;;11.23;7.28;;;22.40;99.90;;;;;;6220991;28;88994;-68
2023/09/27 03:03:42;;;;;;;11.27;7.57;;;22.40;99.90;;;;;;6226050;28;89169;-69
2023/09/27 03:06:48;;;;;;;8.70;7.30;;;22.40;99.90;;;;;;6217185;28;89050;-69
2023/09/27 03:09:54;;;;;;;9.40;7.40;;;22.40;99.90;;;;;;6210261;28;87906;-70
2023/09/27 03:12:58;;;;;;;8.50;6.88;;;22.40;99.90;;;;;;6225022;28;89068;-69
2023/09/27 03:16:00;;;;;;;8.20;7.13;;;22.30;99.90;;;;;;6223501;28;89050;-69
2023/09/27 03:19:02;;;;;;;9.70;7.15;;;22.30;99.90;;;;;;6226490;28;88419;-69
2023/09/27 03:22:04;;;;;;;9.20;7.40;;;22.40;99.90;;;;;;6225067;28;89149;-69
2023/09/27 03:25:09;;;;;;;11.25;7.15;;;22.40;99.90;;;;;;6227258;28;89065;-68
2023/09/27 03:28:11;;;;;;;10.93;7.25;;;22.40;99.90;;;;;;6226719;28;90027;-69
2023/09/27 03:31:13;;;;;;;8.73;7.28;;;22.30;99.90;;;;;;6228878;28;89097;-68
2023/09/27 03:34:15;;;;;;;7.43;6.63;;;22.30;99.90;;;;;;6217132;28;89311;-69
2023/09/27 03:37:17;;;;;;;7.07;6.38;;;22.40;99.90;;;;;;6225461;28;89062;-68
2023/09/27 03:40:21;;;;;;;7.78;6.30;;;22.30;99.90;;;;;;6215786;28;88967;-68
2023/09/27 03:43:22;;;;;;;8.07;6.60;;;22.30;99.90;;;;;;6224309;28;89150;-69
2023/09/27 03:46:25;;;;;;;9.05;6.93;;;22.30;99.90;;;;;;6221532;28;89038;-69
2023/09/27 03:49:27;;;;;;;9.55;7.05;;;22.30;99.90;;;;;;6241018;28;88190;-68
2023/09/27 03:52:29;;;;;;;8.25;6.78;;;22.30;99.90;;;;;;6224318;28;88981;-69
2023/09/27 03:55:32;;;;;;;8.57;6.55;;;22.30;99.90;;;;;;6224453;28;89071;-68
2023/09/27 03:58:34;;;;;;;8.23;6.90;;;22.30;99.90;;;;;;6232765;28;90047;-68
2023/09/27 04:01:36;;;;;;;8.20;7.05;;;22.30;99.90;;;;;;6232987;28;89051;-68
2023/09/27 04:04:38;;;;;;;7.35;6.22;;;22.30;99.90;;;;;;6240468;27;88990;-68
2023/09/27 04:07:40;;;;;;;7.80;6.55;;;22.30;99.90;;;;;;6233174;27;89045;-69
2023/09/27 04:10:44;;;;;;;7.22;6.53;;;22.30;99.90;;;;;;6233338;28;89065;-68
2023/09/27 04:13:46;;;;;;;7.90;6.53;;;22.30;99.90;;;;;;6230547;28;89273;-68
2023/09/27 04:16:48;;;;;;;8.55;6.65;;;22.20;99.90;;;;;;6223031;28;88863;-69
2023/09/27 04:19:51;;;;;;;7.95;7.15;;;22.30;99.90;;;;;;6231158;28;88603;-69
2023/09/27 04:22:53;;;;;;;7.30;6.30;;;22.30;99.90;;;;;;6229404;28;89265;-69
2023/09/27 04:25:56;;;;;;;8.30;6.70;;;22.20;99.90;;;;;;6232239;28;89409;-68
2023/09/27 04:29:00;;;;;;;7.22;6.53;;;22.20;99.90;;;;;;6230830;28;89936;-69
2023/09/27 04:32:02;;;;;;;7.60;6.90;;;22.20;99.90;;;;;;6232982;28;89483;-69
2023/09/27 04:35:04;;;;;;;8.18;6.97;;;22.20;99.90;;;;;;6232264;28;89555;-69
2023/09/27 04:38:07;;;;;;;7.18;6.50;;;22.20;99.90;;;;;;6238893;28;89062;-69
2023/09/27 04:41:10;;;;;;;7.95;6.85;;;22.20;99.90;;;;;;6232532;28;89053;-69
2023/09/27 04:44:13;;;;;;;8.77;7.20;;;22.20;99.90;;;;;;6228800;28;88989;-69
2023/09/27 04:47:14;;;;;;;8.55;7.22;;;22.20;99.90;;;;;;6235953;28;89385;-69
2023/09/27 04:50:16;;;;;;;8.20;6.90;;;22.20;99.90;;;;;;6237874;28;88619;-69
2023/09/27 04:53:18;;;;;;;7.45;6.65;;;22.20;99.90;;;;;;6223511;28;89077;-69
2023/09/27 04:56:22;;;;;;;7.82;7.03;;;22.20;99.90;;;;;;6229304;28;89069;-69
2023/09/27 04:59:24;;;;;;;7.65;6.90;;;22.20;99.90;;;;;;6230740;28;89984;-69
2023/09/27 05:02:27;;;;;;;8.10;7.00;;;22.20;99.90;;;;;;6240589;27;89047;-69
2023/09/27 05:05:29;;;;;;;6.97;6.28;;;22.20;99.90;;;;;;6230809;28;89601;-69
2023/09/27 05:08:31;;;;;;;7.60;6.82;;;22.10;99.90;;;;;;6235464;27;89497;-69
2023/09/27 05:11:34;;;;;;;7.97;6.65;;;22.20;99.90;;;;;;6226643;28;89105;-69
2023/09/27 05:14:36;;;;;;;6.97;6.30;;;22.20;99.90;;;;;;6220998;28;89357;-68
2023/09/27 05:17:38;;;;;;;8.20;6.82;;;22.20;99.90;;;;;;6231470;28;88090;-69
2023/09/27 05:20:40;;;;;;;7.18;6.50;;;22.10;99.90;;;;;;6226052;28;88453;-69
2023/09/27 05:23:42;;;;;;;7.18;6.47;;;22.20;99.90;;;;;;6227226;28;89028;-68
2023/09/27 05:26:46;;;;;;;6.95;6.25;;;22.10;99.90;;;;;;6231578;28;89010;-69
2023/09/27 05:29:48;;;;;;;7.97;6.65;;;22.10;99.90;;;;;;6231356;28;90038;-68
2023/09/27 05:32:50;;;;;;;7.82;6.53;;;22.20;99.90;;;;;;6231328;28;89158;-69
2023/09/27 05:35:52;;;;;;;7.80;7.03;;;22.10;99.90;;;;;;6239637;28;89086;-69
2023/09/27 05:38:54;;;;;;;7.65;6.70;;;22.10;99.90;;;;;;6237415;27;87960;-69
2023/09/27 05:41:57;;;;;;;7.45;6.70;;;22.10;99.90;;;;;;6233635;27;89004;-69
2023/09/27 05:44:59;;;;;;;8.13;6.47;;;22.10;99.90;;;;;;6236602;28;88986;-69
2023/09/27 05:48:01;;;;;;;7.25;6.38;;;22.20;99.90;;;;;;6226494;28;89090;-69
2023/09/27 05:51:03;;;;;;;7.47;6.72;;;22.20;99.90;;;;;;6224663;28;88291;-69
2023/09/27 05:54:07;;;;;;;8.73;7.00;;;22.10;99.90;;;;;;6229367;28;89336;-69
2023/09/27 05:57:10;;;;;;;7.28;6.53;;;22.10;99.90;;;;;;6230149;28;88895;-69
2023/09/27 06:00:21;;;;;;;7.40;6.70;;;22.20;99.90;;;;;;6239005;28;90436;-69
2023/09/27 06:03:25;;;;;;;7.70;6.65;;;22.10;99.90;;;;;;6218677;28;89084;-69
2023/09/27 06:06:29;;;;;;;7.35;6.57;;;22.20;99.90;;;;;;6230200;28;89325;-69
2023/09/27 06:09:31;;;;;;;7.63;6.90;;;22.20;99.90;;;;;;6231802;28;89049;-69
2023/09/27 06:12:34;;;;;;;7.10;6.40;;;22.20;99.90;;;;;;6231421;27;89023;-69
2023/09/27 06:15:36;;;;;;;7.40;6.70;;;22.10;99.90;;;;;;6240739;27;88151;-69
2023/09/27 06:18:38;;;;;;;8.13;6.82;;;22.10;99.90;;;;;;6229944;28;89169;-69
2023/09/27 06:21:40;;;;;;;8.52;6.93;;;22.20;99.90;;;;;;6242724;28;88464;-69
2023/09/27 06:24:42;;;;;;;7.55;6.78;;;22.10;99.90;;;;;;6230347;28;89291;-69
2023/09/27 06:27:46;;;;;;;6.63;6.00;;;22.10;99.90;;;;;;6241686;28;89208;-69
2023/09/27 06:30:48;;;;;;;8.40;6.60;;;22.10;99.90;;;;;;6227781;28;90231;-69
2023/09/27 06:33:51;;;;;;;7.20;6.50;;;22.20;99.90;;;;;;6229703;28;88940;-69
2023/09/27 06:36:56;;;;;;;6.95;6.32;;;22.10;99.90;;;;;;6223489;28;89238;-69
2023/09/27 06:39:58;;;;;;;7.10;6.40;;;22.10;99.90;;;;;;6225489;28;87033;-68
2023/09/27 06:43:01;;;;;;;7.10;6.43;;;22.10;99.90;;;;;;6215744;27;89011;-69
2023/09/27 06:46:10;;;;;;;7.25;6.57;;;22.10;99.90;;;;;;6219287;28;89033;-69
2023/09/27 06:49:13;;;;;;;7.32;6.63;;;22.10;99.90;;;;;;6217916;28;89273;-69
2023/09/27 06:52:15;;;;;;;9.43;6.75;;;22.10;99.90;;;;;;6206574;28;88503;-69
2023/09/27 06:55:18;;;;;;;7.53;6.82;;;22.10;99.90;;;;;;6231446;28;88994;-68
2023/09/27 06:58:23;;;;;;;7.63;6.65;;;22.10;99.90;;;;;;6230191;28;89425;-69
2023/09/27 07:01:25;;;;;;;6.32;5.68;;;22.10;99.90;;;;;;6219759;28;90080;-69
2023/09/27 07:04:27;;;;;;;7.03;6.32;;;22.10;99.90;;;;;;6226062;28;89016;-69
2023/09/27 07:07:30;;;;;;;6.80;6.20;;;22.10;99.90;;;;;;6224395;28;87999;-69
2023/09/27 07:10:32;;;;;;;6.97;6.28;;;22.10;99.90;;;;;;6225103;28;89007;-69
2023/09/27 07:13:37;;;;;;;7.85;6.80;;;22.10;99.90;;;;;;6222176;28;88789;-68
2023/09/27 07:16:39;;;;;;;7.40;6.65;;;22.10;99.90;;;;;;6211133;28;89322;-69
2023/09/27 07:19:41;;;;;;;7.18;6.47;;;22.10;99.90;;;;;;6228653;28;89030;-69
2023/09/27 07:22:44;;;;;;;6.78;6.07;;;22.10;99.90;;;;;;6229749;28;88079;-69
2023/09/27 07:25:47;;;;;;;6.57;5.88;;;22.10;99.90;;;;;;6219584;28;89058;-69
2023/09/27 07:28:51;;;;;;;6.93;6.22;;;22.10;99.90;;;;;;6230324;28;88936;-69
2023/09/27 07:31:53;;;;;;;7.30;6.20;;;22.10;99.90;;;;;;6233705;28;90182;-68
2023/09/27 07:34:58;;;;;;;6.55;5.95;;;22.10;99.90;;;;;;6234264;28;89359;-69
2023/09/27 07:38:00;;;;;;;6.63;6.03;;;22.10;99.90;;;;;;6239689;27;89688;-68
2023/09/27 07:41:02;;;;;;;7.20;6.50;;;22.10;99.90;;;;;;6244285;28;89432;-69
2023/09/27 07:44:09;;;;;;;6.82;6.13;;;22.20;99.90;;;;;;6233980;28;88931;-69
2023/09/27 07:47:11;;;;;;;7.85;6.60;;;22.10;99.90;;;;;;6226581;28;89324;-69
2023/09/27 07:50:13;;;;;;;6.50;5.82;;;22.10;99.90;;;;;;6233435;28;89415;-69
2023/09/27 07:53:17;;;;;;;6.32;5.72;;;22.10;99.90;;;;;;6232460;28;88324;-69
2023/09/27 07:56:20;;;;;;;7.10;6.40;;;22.10;99.90;;;;;;6226022;28;89114;-69
2023/09/27 07:59:23;;;;;;;6.70;6.10;;;22.10;99.90;;;;;;6231433;27;89214;-69
2023/09/27 08:02:26;;;;;;;6.28;5.75;;;22.10;99.90;;;;;;6231821;28;90077;-69
2023/09/27 08:05:27;;;;;;;7.93;6.70;;;22.10;99.90;;;;;;6230809;28;89068;-69
2023/09/27 08:08:29;;;;;;;8.25;6.57;;;22.10;99.90;;;;;;6215607;28;89055;-69
2023/09/27 08:11:32;;;;;;;6.78;6.13;;;22.10;99.90;;;;;;6222684;28;89146;-69
2023/09/27 08:14:36;;;;;;;7.30;6.28;;;22.10;99.90;;;;;;6233529;28;90419;-69
2023/09/27 08:17:38;;;;;;;6.70;6.10;;;22.10;99.90;;;;;;6221286;28;88984;-69
2023/09/27 08:20:40;;;;;;;8.02;6.47;;;22.10;99.90;;;;;;6232321;28;89112;-69
2023/09/27 08:23:42;;;;;;;7.80;6.43;;;22.10;99.90;;;;;;6228253;28;87229;-69
2023/09/27 08:26:44;;;;;;;7.25;6.55;;;22.10;99.90;;;;;;6227010;28;89379;-69
2023/09/27 08:30:11;;;;;;;;;;;;;;;;;;;;;
2023/09/27 08:33:13;;;;;;;6.80;5.97;;;22.10;99.90;;;;;;6183692;28;119149;-68
2023/09/27 08:36:15;;;;;;;7.13;6.53;;;22.10;99.90;;;;;;6224651;28;89095;-69
2023/09/27 08:39:17;;;;;;;8.70;6.97;;;22.10;99.90;;;;;;6222469;28;89152;-68
2023/09/27 08:42:22;;;;;;;7.75;6.85;;;22.10;99.90;;;;;;6218986;28;89100;-68
2023/09/27 08:45:26;;;;;;;6.88;6.18;;;22.10;99.90;;;;;;6233378;28;87967;-69
2023/09/27 08:48:29;;;;;;;6.88;6.28;;;22.10;99.90;;;;;;6245754;28;90597;-68
2023/09/27 08:51:31;;;;;;;6.53;5.93;;;22.10;99.90;;;;;;6231966;28;89132;-69
2023/09/27 08:54:33;;;;;;;7.00;6.32;;;22.10;99.90;;;;;;6228827;28;88270;-68
2023/09/27 08:57:38;;;;;;;6.47;5.88;;;22.10;99.90;;;;;;6219013;28;88943;-69
2023/09/27 09:00:42;;;;;;;6.78;6.07;;;22.10;99.90;;;;;;6231774;28;87907;-68
2023/09/27 09:03:46;;;;;;;7.35;5.97;;;22.10;99.90;;;;;;6233073;28;89930;-69
2023/09/27 09:06:50;;;;;;;7.95;6.35;;;22.10;99.90;;;;;;6229142;27;87904;-69
2023/09/27 09:09:52;;;;;;;6.65;6.05;;;22.10;99.90;;;;;;6219751;28;89028;-69
2023/09/27 09:12:54;;;;;;;6.95;6.30;;;22.10;99.90;;;;;;6231475;28;89114;-69
2023/09/27 09:15:58;;;;;;;7.40;6.68;;;22.10;99.90;;;;;;6231677;28;89130;-68
2023/09/27 09:19:16;;;;;;;7.10;6.18;;;22.10;99.90;;;;;;6230248;28;89048;-68
2023/09/27 09:22:18;;;;;;;7.63;6.43;;;22.10;99.90;;;;;;6221391;28;89068;-69
2023/09/27 09:25:22;;;;;;;7.53;6.72;;;22.10;99.90;;;;;;6212825;28;87143;-69
2023/09/27 09:28:25;;;;;;;7.05;6.35;;;22.10;99.90;;;;;;6223058;28;89144;-69
2023/09/27 09:31:32;;;;;;;8.68;7.07;;;22.10;99.90;;;;;;6215911;28;89054;-69
2023/09/27 09:34:41;;;;;;;6.65;6.05;;;22.10;99.90;;;;;;6222240;28;89965;-69
2023/09/27 09:37:48;;;;;;;8.02;6.60;;;22.10;99.90;;;;;;6229929;28;89062;-69
2023/09/27 09:40:54;;;;;;;6.80;6.10;;;22.10;99.90;;;;;;6219752;28;89201;-69
2023/09/27 09:43:56;;;;;;;6.30;5.72;;;22.10;99.90;;;;;;6234274;27;87911;-68
2023/09/27 09:47:11;;;;;;;6.22;5.72;;;22.10;99.90;;;;;;6236118;27;87923;-69
2023/09/27 09:50:16;;;;;;;6.47;5.88;;;22.10;99.90;;;;;;6219591;28;88249;-69
2023/09/27 09:53:20;;;;;;;6.57;5.97;;;22.10;99.90;;;;;;6228982;28;89385;-68
2023/09/27 09:56:23;;;;;;;6.45;5.85;;;22.10;99.90;;;;;;6237980;28;88481;-69
2023/09/27 09:59:31;;;;;;;6.55;5.95;;;22.10;99.90;;;;;;6241160;27;89000;-68
2023/09/27 10:02:41;;;;;;;6.35;5.75;;;22.10;99.90;;;;;;6232368;27;89100;-69
2023/09/27 10:05:44;;;;;;;6.03;5.53;;;22.10;99.90;;;;;;6227335;28;90010;-68
2023/09/27 10:08:47;;;;;;;6.03;5.53;;;22.10;99.90;;;;;;6229739;28;89041;-68
2023/09/27 10:11:50;;;;;;;7.10;6.40;;;22.10;99.90;;;;;;6227129;28;89223;-68
2023/09/27 10:14:53;;;;;;;7.20;6.50;;;22.10;99.90;;;;;;6228233;28;89022;-68
2023/09/27 10:18:29;;;;;;;6.43;5.72;;;22.10;99.90;;;;;;6230433;28;89111;-69
2023/09/27 10:21:32;;;;;;;6.35;5.78;;;22.10;99.90;;;;;;6226145;28;89245;-69
2023/09/27 10:24:35;;;;;;;6.78;6.18;;;22.10;99.90;;;;;;6229963;28;87983;-69
2023/09/27 10:28:06;;;;;;;6.30;5.70;;;22.10;99.90;;;;;;6220209;28;88378;-69
2023/09/27 10:31:09;;;;;;;6.32;5.72;;;22.10;99.90;;;;;;6214641;28;89201;-68
2023/09/27 10:34:41;;;;;;;6.45;5.85;;;22.10;99.90;;;;;;6224599;28;89192;-68
2023/09/27 10:37:59;;;;;;;7.22;6.53;;;22.10;99.90;;;;;;6220060;28;89051;-68
2023/09/27 10:41:03;;;;;;;6.07;5.47;;;22.20;99.90;;;;;;6229056;28;89101;-68
2023/09/27 10:44:05;;;;;;;7.07;6.38;;;22.10;99.90;;;;;;6227629;28;89054;-69
2023/09/27 10:47:08;;;;;;;6.68;5.97;;;22.10;99.90;;;;;;6231368;27;89323;-68
2023/09/27 10:50:12;;;;;;;6.72;6.07;;;22.10;99.90;;;;;;6225801;28;89245;-69
2023/09/27 10:53:16;;;;;;;6.68;6.00;;;22.10;99.90;;;;;;6231586;28;87930;-69
2023/09/27 10:56:18;;;;;;;6.75;6.07;;;22.10;99.90;;;;;;6228750;28;89019;-69
2023/09/27 10:59:24;;;;;;;6.93;6.28;;;22.20;99.90;;;;;;6236071;28;88448;-69
2023/09/27 11:02:30;;;;;;;7.30;6.57;;;22.10;99.90;;;;;;6234253;28;88294;-69
2023/09/27 11:05:33;;;;;;;6.70;6.10;;;22.10;99.90;;;;;;6240350;28;89033;-69
2023/09/27 11:08:35;;;;;;;8.35;7.07;;;22.10;99.90;;;;;;6237601;28;90026;-69
2023/09/27 11:11:37;;;;;;;7.70;6.90;;;22.10;99.90;;;;;;6224289;27;89025;-69
2023/09/27 11:14:45;;;;;;;7.20;6.50;;;22.10;99.90;;;;;;6227069;28;89088;-69
2023/09/27 11:17:55;;;;;;;6.65;6.05;;;22.10;99.90;;;;;;6213288;28;89186;-69
2023/09/27 11:21:08;;;;;;;6.82;6.22;;;22.10;99.90;;;;;;6228314;28;89038;-69
2023/09/27 11:24:12;;;;;;;7.03;6.20;;;22.10;99.90;;;;;;6229607;28;89019;-69
2023/09/27 11:27:19;;;;;;;6.68;6.07;;;22.20;99.90;;;;;;6239414;28;89173;-69
2023/09/27 11:30:26;;;;;;;6.93;6.20;;;22.10;99.90;;;;;;6235133;27;88375;-69
2023/09/27 11:33:33;;;;;;;6.50;5.90;;;22.10;99.90;;;;;;6225439;28;88956;-69
2023/09/27 11:36:42;;;;;;;9.43;8.52;;;22.10;99.90;;;;;;6226122;28;89521;-69
2023/09/27 11:39:50;;;;;;;7.32;6.57;;;22.10;99.90;;;;;;6232222;28;90033;-69
2023/09/27 11:42:52;;;;;;;8.02;7.22;;;22.10;99.90;;;;;;6233531;28;89179;-69
2023/09/27 11:45:54;;;;;;;9.60;7.70;;;22.10;99.90;;;;;;6231378;28;89003;-69
2023/09/27 11:49:08;;;;;;;9.95;7.70;;;22.10;99.90;;;;;;6211444;28;89138;-69
2023/09/27 11:52:12;;;;;;;10.32;7.78;;;22.10;99.90;;;;;;6220673;28;89291;-69
2023/09/27 11:55:14;;;;;;;9.10;8.20;;;22.10;99.90;;;;;;6228675;28;89125;-68
2023/09/27 11:58:16;;;;;;;8.73;7.95;;;22.20;99.90;;;;;;6220330;28;88976;-69
2023/09/27 12:01:19;;;;;;;9.20;8.30;;;22.10;99.90;;;;;;6247367;27;88504;-68
2023/09/27 12:04:21;;;;;;;11.25;10.02;;;22.20;99.90;;;;;;6238086;27;89216;-69
2023/09/27 12:07:24;;;;;;;8.70;7.88;;;22.10;99.90;;;;;;6221940;28;89160;-69
2023/09/27 12:10:26;;;;;;;7.80;7.10;;;22.10;99.90;;;;;;6221809;28;90317;-69
2023/09/27 12:13:28;;;;;;;10.20;7.72;;;22.10;99.90;;;;;;6224693;28;88964;-69
2023/09/27 12:16:30;;;;;;;10.75;8.57;;;22.10;99.90;;;;;;6232570;28;88250;-68
2023/09/27 12:19:34;;;;;;;8.45;7.57;;;22.10;99.90;;;;;;6226654;28;89087;-69
2023/09/27 12:22:37;;;;;;;10.43;7.30;;;22.20;99.90;;;;;;6234452;28;87994;-68
2023/09/27 12:25:39;;;;;;;8.45;7.65;;;22.10;99.90;;;;;;6232537;28;89405;-67
2023/09/27 12:28:42;;;;;;;8.57;7.70;;;22.10;99.90;;;;;;6239648;28;89159;-67
2023/09/27 12:31:44;;;;;;;8.73;7.30;;;22.10;99.90;;;;;;6224788;28;87285;-71
2023/09/27 12:34:47;;;;;;;9.70;8.13;;;22.20;99.90;;;;;;6229532;28;90543;-68
2023/09/27 12:37:50;;;;;;;8.95;8.05;;;22.20;99.90;;;;;;6231166;28;89065;-68
2023/09/27 12:40:52;;;;;;;8.57;7.57;;;22.20;99.90;;;;;;6232251;28;88916;-68
2023/09/27 12:43:54;;;;;;;7.60;6.90;;;22.20;99.90;;;;;;6234108;28;89074;-69
2023/09/27 12:46:56;;;;;;;8.20;7.35;;;22.20;99.90;;;;;;6228308;28;87620;-68
2023/09/27 12:49:59;;;;;;;9.20;7.57;;;22.20;99.90;;;;;;6231329;28;88983;-68
2023/09/27 12:53:03;;;;;;;9.40;8.40;;;22.20;99.90;;;;;;6232776;28;89107;-68
2023/09/27 12:56:07;;;;;;;9.05;7.35;;;22.20;99.90;;;;;;6237293;28;89181;-68
2023/09/27 12:59:08;;;;;;;10.48;9.25;;;22.20;99.90;;;;;;6243962;28;89460;-68
2023/09/27 13:02:11;;;;;;;8.90;7.70;;;22.20;99.90;;;;;;6238256;27;88617;-68
2023/09/27 13:05:13;;;;;;;11.60;8.75;;;22.20;99.90;;;;;;6232163;28;89166;-69
2023/09/27 13:08:16;;;;;;;8.27;6.97;;;22.20;99.90;;;;;;6225489;28;89068;-68
2023/09/27 13:11:18;;;;;;;11.05;8.02;;;22.20;99.90;;;;;;6220099;28;90049;-69
2023/09/27 13:14:20;;;;;;;11.90;9.13;;;22.20;99.90;;;;;;6213602;28;89317;-69
2023/09/27 13:17:23;;;;;;;18.63;11.55;;;22.20;99.90;;;;;;6228924;28;87918;-68
2023/09/27 13:20:25;;;;;;;22.98;12.50;;;22.20;99.90;;;;;;6223343;28;87873;-69
2023/09/27 13:23:28;;;;;;;17.77;11.52;;;22.20;99.90;;;;;;6223024;28;89080;-68
2023/09/27 13:26:30;;;;;;;16.25;11.20;;;22.20;99.90;;;;;;6222325;28;89147;-69
2023/09/27 13:29:32;;;;;;;13.30;9.95;;;22.20;99.90;;;;;;6255801;27;89022;-68
2023/09/27 13:32:35;;;;;;;11.60;9.48;;;22.20;99.90;;;;;;6243798;27;87141;-68
2023/09/27 13:35:37;;;;;;;10.45;9.07;;;22.20;99.90;;;;;;6232678;27;89054;-69
2023/09/27 13:38:41;;;;;;;10.98;9.10;;;22.20;99.90;;;;;;6215102;28;87677;-68
2023/09/27 13:41:45;;;;;;;12.30;9.13;;;22.20;99.90;;;;;;6221298;28;90067;-69
2023/09/27 13:44:48;;;;;;;13.68;9.77;;;22.20;99.90;;;;;;6231110;28;89050;-69
2023/09/27 13:47:50;;;;;;;12.27;9.10;;;22.10;99.90;;;;;;6219273;28;89448;-69
2023/09/27 13:50:52;;;;;;;10.73;8.38;;;22.20;99.90;;;;;;6231406;28;89007;-68
2023/09/27 13:53:55;;;;;;;13.38;9.15;;;22.20;99.90;;;;;;6223052;28;89327;-69
2023/09/27 13:56:58;;;;;;;10.13;8.13;;;22.20;99.90;;;;;;6232200;28;89106;-69
2023/09/27 14:00:00;;;;;;;11.20;8.38;;;22.20;99.90;;;;;;6229569;28;89426;-68
2023/09/27 14:03:02;;;;;;;11.13;8.88;;;22.20;99.90;;;;;;6255313;27;88321;-69
2023/09/27 14:06:05;;;;;;;10.30;8.60;;;22.20;99.90;;;;;;6247583;27;89049;-69
2023/09/27 14:09:08;;;;;;;14.70;8.52;;;22.20;99.90;;;;;;6217731;28;89073;-69
2023/09/27 14:12:10;;;;;;;11.95;8.77;;;22.20;99.90;;;;;;6228426;28;90043;-69
2023/09/27 14:15:12;;;;;;;11.38;8.48;;;22.20;99.90;;;;;;6230140;28;89079;-69
2023/09/27 14:18:14;;;;;;;11.15;8.90;;;22.20;99.90;;;;;;6221642;28;89212;-69
2023/09/27 14:21:16;;;;;;;11.57;9.07;;;22.20;99.90;;;;;;6224703;28;89399;-69
2023/09/27 14:24:19;;;;;;;11.68;8.70;;;22.20;99.90;;;;;;6230597;28;89063;-69
2023/09/27 14:27:21;;;;;;;10.35;8.43;;;22.20;99.90;;;;;;6230307;28;89048;-69
2023/09/27 14:30:24;;;;;;;10.15;9.05;;;22.20;99.90;;;;;;6210609;28;89090;-69
2023/09/27 14:33:28;;;;;;;9.75;8.75;;;22.20;99.90;;;;;;6230292;28;88262;-69
2023/09/27 14:36:30;;;;;;;10.07;9.07;;;22.20;99.90;;;;;;6221005;28;89025;-69
2023/09/27 14:39:33;;;;;;;11.63;9.65;;;22.20;99.90;;;;;;6227736;28;89006;-69
2023/09/27 14:42:35;;;;;;;13.40;10.15;;;22.20;99.90;;;;;;6217947;28;89906;-69
2023/09/27 14:45:38;;;;;;;11.80;9.57;;;22.20;99.90;;;;;;6227673;28;89064;-70
2023/09/27 14:48:41;;;;;;;9.07;8.18;;;22.20;99.90;;;;;;6219318;28;89053;-69
2023/09/27 14:51:43;;;;;;;11.77;8.90;;;22.20;99.90;;;;;;6216990;28;87942;-69
2023/09/27 14:54:46;;;;;;;10.00;8.32;;;22.20;99.90;;;;;;6223594;28;89013;-69
2023/09/27 14:57:48;;;;;;;13.32;9.18;;;22.20;99.90;;;;;;6217261;28;89422;-69
2023/09/27 15:00:52;;;;;;;11.30;9.30;;;22.20;99.90;;;;;;6225286;28;89591;-69
2023/09/27 15:03:55;;;;;;;11.43;9.07;;;22.20;99.90;;;;;;6223395;28;88284;-70
2023/09/27 15:06:57;;;;;;;14.00;9.55;;;22.20;99.90;;;;;;6243516;28;89126;-69
2023/09/27 15:10:00;;;;;;;10.55;9.35;;;22.20;99.90;;;;;;6222134;28;88905;-69
2023/09/27 15:13:05;;;;;;;10.57;9.02;;;22.20;99.90;;;;;;6218098;28;90071;-69
2023/09/27 15:16:07;;;;;;;9.15;8.23;;;22.20;99.90;;;;;;6221000;28;88995;-69
2023/09/27 15:19:09;;;;;;;10.30;8.40;;;22.20;99.90;;;;;;6225964;28;87966;-69
2023/09/27 15:22:11;;;;;;;11.80;9.13;;;22.20;99.90;;;;;;6225285;28;89295;-69
2023/09/27 15:25:15;;;;;;;10.65;9.55;;;22.20;99.90;;;;;;6224115;28;88981;-68
2023/09/27 15:28:17;;;;;;;9.95;8.95;;;22.20;99.90;;;;;;6221541;28;89176;-69
2023/09/27 15:31:19;;;;;;;10.70;9.00;;;22.20;99.90;;;;;;6229102;28;89024;-68
2023/09/27 15:34:21;;;;;;;11.10;9.15;;;22.20;99.90;;;;;;6229725;28;87146;-69
2023/09/27 15:37:23;;;;;;;11.48;8.95;;;22.10;99.90;;;;;;6230281;28;89218;-68
2023/09/27 15:40:30;;;;;;;9.80;8.75;;;22.20;99.90;;;;;;6229555;28;89112;-69
2023/09/27 15:43:32;;;;;;;11.57;8.98;;;22.20;99.90;;;;;;6220832;28;90189;-68
2023/09/27 15:46:40;;;;;;;10.50;8.95;;;22.20;99.90;;;;;;6219236;28;89329;-68
2023/09/27 15:49:42;;;;;;;9.75;8.05;;;22.20;99.90;;;;;;6237209;28;88975;-68
2023/09/27 15:52:44;;;;;;;9.43;7.88;;;22.10;99.90;;;;;;6232642;28;89458;-68
2023/09/27 15:55:47;;;;;;;8.95;8.05;;;22.20;99.90;;;;;;6225471;28;89078;-69
2023/09/27 15:58:49;;;;;;;9.60;8.48;;;22.20;99.90;;;;;;6236380;27;88222;-68